Time;durP1;ratioP1;P1;durP2;ratioP2;P2;SDS_P1;SDS_P2;PMS_P1;PMS_P2;Temp;Humidity;BMP_temperature;BMP_pressure;BME280_temperature;BME280_humidity;BME280_pressure;Samples;Min_cycle;Max_cycle;Signal;HPM_P1;HPM_P2
2021/03/18 00:00:53;;;;;;;16.30;6.87;;;;;;;0.62;100.00;96788.81;5036225;28;20243;-72
2021/03/18 00:03:21;;;;;;;17.03;6.77;;;;;;;0.66;100.00;96788.53;5036739;28;20258;-72
2021/03/18 00:05:48;;;;;;;19.17;7.40;;;;;;;0.75;100.00;96784.47;5035431;28;20279;-72
2021/03/18 00:08:14;;;;;;;18.77;7.30;;;;;;;0.85;100.00;96788.09;5036530;28;20210;-73
2021/03/18 00:10:41;;;;;;;17.67;6.70;;;;;;;0.91;100.00;96785.09;5036191;28;20222;-73
2021/03/18 00:13:08;;;;;;;15.17;7.10;;;;;;;0.94;100.00;96782.28;5036276;28;21175;-73
2021/03/18 00:15:35;;;;;;;15.73;7.40;;;;;;;0.85;100.00;96790.69;5035866;28;20236;-72
2021/03/18 00:18:02;;;;;;;18.43;7.67;;;;;;;0.96;100.00;96788.19;5036430;28;20206;-73
2021/03/18 00:20:27;;;;;;;13.70;6.83;;;;;;;0.86;100.00;96787.16;5036388;28;20201;-72
2021/03/18 00:22:54;;;;;;;15.30;7.07;;;;;;;0.92;100.00;96776.38;5040513;28;20205;-72
2021/03/18 00:25:20;;;;;;;18.27;6.87;;;;;;;1.00;100.00;96779.25;5040007;28;20221;-75
2021/03/18 00:27:47;;;;;;;19.20;8.53;;;;;;;1.06;100.00;96778.81;5039969;28;20500;-73
2021/03/18 00:30:17;;;;;;;16.17;7.83;;;;;;;1.16;100.00;96775.50;5040384;28;20219;-72
2021/03/18 00:32:44;;;;;;;18.40;7.33;;;;;;;1.20;100.00;96777.75;5040121;28;20208;-73
2021/03/18 00:35:11;;;;;;;14.87;7.60;;;;;;;1.14;100.00;96779.13;5039022;28;20235;-73
2021/03/18 00:37:40;;;;;;;13.93;7.50;;;;;;;1.11;100.00;96781.91;5039866;28;20212;-73
2021/03/18 00:40:08;;;;;;;20.07;7.57;;;;;;;1.10;100.00;96781.09;5040491;28;20572;-73
2021/03/18 00:42:34;;;;;;;18.00;7.27;;;;;;;1.13;100.00;96774.88;5039623;28;20671;-73
2021/03/18 00:45:00;;;;;;;16.73;7.13;;;;;;;1.17;100.00;96773.72;5039166;28;20292;-73
2021/03/18 00:47:26;;;;;;;14.17;6.73;;;;;;;1.16;100.00;96779.84;5040525;28;20687;-73
2021/03/18 00:49:53;;;;;;;14.67;7.20;;;;;;;1.05;100.00;96779.78;5039249;28;20227;-72
2021/03/18 00:52:19;;;;;;;15.60;7.40;;;;;;;1.09;100.00;96778.63;5039061;28;20208;-72
2021/03/18 00:54:45;;;;;;;17.03;7.80;;;;;;;1.08;100.00;96771.75;5039884;28;20735;-73
2021/03/18 00:57:11;;;;;;;17.30;7.20;;;;;;;1.09;100.00;96770.84;5040028;28;20639;-73
2021/03/18 00:59:37;;;;;;;19.53;7.17;;;;;;;1.11;100.00;96771.53;5039590;28;20208;-73
2021/03/18 01:02:03;;;;;;;18.03;7.37;;;;;;;1.15;100.00;96770.41;5039261;28;20304;-73
2021/03/18 01:04:29;;;;;;;15.70;7.30;;;;;;;1.12;100.00;96770.59;5039293;28;20231;-72
2021/03/18 01:06:56;;;;;;;16.00;7.50;;;;;;;1.09;100.00;96768.25;5039104;28;20310;-73
2021/03/18 01:09:22;;;;;;;15.03;7.10;;;;;;;1.09;100.00;96763.06;5039070;28;20212;-73
2021/03/18 01:11:48;;;;;;;16.83;7.73;;;;;;;1.01;100.00;96757.56;5039369;28;20228;-73
2021/03/18 01:14:14;;;;;;;14.33;7.10;;;;;;;1.04;100.00;96760.75;5039166;28;20217;-73
2021/03/18 01:16:45;;;;;;;13.77;7.23;;;;;;;1.08;100.00;96756.19;5038380;28;20208;-73
2021/03/18 01:19:12;;;;;;;14.93;6.80;;;;;;;0.99;100.00;96751.66;5039229;28;20208;-73
2021/03/18 01:21:42;;;;;;;17.50;7.00;;;;;;;0.98;100.00;96755.19;5039169;28;20664;-73
2021/03/18 01:24:10;;;;;;;14.83;7.33;;;;;;;1.00;100.00;96761.09;5039111;28;20232;-72
2021/03/18 01:26:36;;;;;;;16.87;7.20;;;;;;;1.08;100.00;96753.59;5038616;28;20204;-73
2021/03/18 01:29:03;;;;;;;16.17;7.67;;;;;;;0.95;100.00;96765.78;5039245;28;20209;-72
2021/03/18 01:31:29;;;;;;;18.93;7.43;;;;;;;1.14;100.00;96764.38;5038525;28;20732;-73
2021/03/18 01:33:55;;;;;;;19.03;7.70;;;;;;;1.18;100.00;96765.81;5038450;28;20255;-73
2021/03/18 01:36:22;;;;;;;19.50;7.07;;;;;;;1.03;100.00;96760.88;5038696;28;20278;-73
2021/03/18 01:38:48;;;;;;;16.17;7.00;;;;;;;1.00;100.00;96756.72;5038959;28;20206;-73
2021/03/18 01:41:16;;;;;;;17.53;7.37;;;;;;;0.93;100.00;96762.44;5038711;28;20204;-73
2021/03/18 01:43:43;;;;;;;15.40;6.63;;;;;;;0.75;100.00;96768.91;5038847;28;20212;-72
2021/03/18 01:46:10;;;;;;;15.57;6.87;;;;;;;0.83;100.00;96764.03;5038133;28;20218;-73
2021/03/18 01:48:36;;;;;;;15.30;6.67;;;;;;;0.67;100.00;96768.59;5038509;28;20197;-72
2021/03/18 01:51:03;;;;;;;15.47;6.77;;;;;;;0.72;100.00;96763.94;5038691;28;20205;-72
2021/03/18 01:53:30;;;;;;;15.90;6.83;;;;;;;0.63;100.00;96769.75;5038930;28;20209;-73
2021/03/18 01:55:58;;;;;;;14.57;6.63;;;;;;;0.67;100.00;96760.81;5037185;28;20708;-72
2021/03/18 01:58:26;;;;;;;21.50;6.57;;;;;;;0.69;100.00;96759.78;5038715;28;20208;-73
2021/03/18 02:00:54;;;;;;;14.17;6.87;;;;;;;0.70;100.00;96753.69;5038377;28;20217;-72
2021/03/18 02:03:20;;;;;;;18.67;6.63;;;;;;;0.67;100.00;96758.22;5038524;28;20199;-72
2021/03/18 02:05:47;;;;;;;17.40;7.50;;;;;;;0.74;100.00;96762.09;5037574;28;20231;-72
2021/03/18 02:08:14;;;;;;;16.53;7.20;;;;;;;0.85;100.00;96759.56;5039034;28;20227;-73
2021/03/18 02:10:41;;;;;;;18.13;7.60;;;;;;;0.79;100.00;96758.22;5038238;28;20210;-73
2021/03/18 02:13:08;;;;;;;15.30;6.87;;;;;;;0.78;100.00;96755.75;5037593;28;20711;-73
2021/03/18 02:15:38;;;;;;;16.00;7.37;;;;;;;0.93;100.00;96762.44;5037181;28;20227;-73
2021/03/18 02:18:09;;;;;;;17.80;6.87;;;;;;;0.85;100.00;96757.81;5038149;28;20204;-73
2021/03/18 02:21:05;;;;;;;17.30;7.60;;;;;;;0.83;100.00;96757.06;5037540;28;20209;-72
2021/03/18 02:23:59;;;;;;;17.67;6.60;;;;;;;0.93;100.00;96754.66;5038124;28;20220;-72
2021/03/18 02:26:45;;;;;;;17.10;7.00;;;;;;;0.84;100.00;96763.09;5037505;28;20206;-73
2021/03/18 02:29:42;;;;;;;19.00;7.40;;;;;;;0.68;100.00;96759.91;5037880;28;20211;-72
2021/03/18 02:32:22;;;;;;;17.37;6.70;;;;;;;0.84;100.00;96761.34;5037617;28;20201;-72
2021/03/18 02:35:18;;;;;;;17.67;7.30;;;;;;;0.82;100.00;96764.97;5037678;28;20231;-73
2021/03/18 02:37:49;;;;;;;14.63;6.97;;;;;;;0.66;100.00;96766.94;5038030;28;20216;-73
2021/03/18 02:40:19;;;;;;;19.37;7.50;;;;;;;0.75;100.00;96761.13;5037908;28;20205;-73
2021/03/18 02:42:49;;;;;;;20.30;7.30;;;;;;;0.77;100.00;96762.69;5037318;28;20386;-72
2021/03/18 02:45:16;;;;;;;17.03;7.07;;;;;;;0.59;100.00;96768.31;5036462;28;20222;-72
2021/03/18 02:47:43;;;;;;;17.83;7.30;;;;;;;0.57;100.00;96775.34;5037632;28;20222;-72
2021/03/18 02:50:11;;;;;;;17.30;7.33;;;;;;;0.47;100.00;96770.91;5037251;28;20204;-72
2021/03/18 02:52:40;;;;;;;15.63;6.40;;;;;;;0.49;100.00;96767.25;5037220;28;20209;-73
2021/03/18 02:55:09;;;;;;;16.83;7.53;;;;;;;0.44;100.00;96771.94;5036569;28;20227;-73
2021/03/18 02:57:38;;;;;;;22.30;8.17;;;;;;;0.54;100.00;96770.38;5037535;28;20201;-73
2021/03/18 03:00:06;;;;;;;16.73;6.73;;;;;;;0.43;100.00;96772.84;5037193;28;20244;-73
2021/03/18 03:02:33;;;;;;;18.20;7.63;;;;;;;0.36;100.00;96782.00;5037628;28;20203;-73
2021/03/18 03:04:59;;;;;;;18.07;7.77;;;;;;;0.43;100.00;96778.03;5036644;28;20225;-73
2021/03/18 03:07:28;;;;;;;18.87;7.37;;;;;;;0.34;100.00;96776.06;5036506;28;20204;-73
2021/03/18 03:09:56;;;;;;;18.77;7.83;;;;;;;0.42;100.00;96770.38;5037445;28;20216;-73
2021/03/18 03:12:25;;;;;;;18.23;7.57;;;;;;;0.39;100.00;96774.00;5037376;28;20201;-73
2021/03/18 03:14:54;;;;;;;19.43;7.80;;;;;;;0.39;100.00;96776.59;5036968;28;20232;-73
2021/03/18 03:17:23;;;;;;;21.57;7.50;;;;;;;0.42;100.00;96776.41;5037143;28;20228;-73
2021/03/18 03:19:50;;;;;;;22.00;8.47;;;;;;;0.40;100.00;96773.06;5037589;28;20201;-73
2021/03/18 03:22:16;;;;;;;18.20;7.50;;;;;;;0.33;100.00;96779.63;5036254;28;20197;-73
2021/03/18 03:24:45;;;;;;;21.20;8.20;;;;;;;0.38;100.00;96781.88;5036549;28;20734;-73
2021/03/18 03:27:13;;;;;;;20.70;7.73;;;;;;;0.41;100.00;96786.84;5036579;28;20697;-73
2021/03/18 03:29:41;;;;;;;17.10;7.47;;;;;;;0.32;100.00;96780.53;5036941;28;20205;-73
2021/03/18 03:32:08;;;;;;;16.97;7.83;;;;;;;0.32;100.00;96785.72;5036522;28;20203;-73
2021/03/18 03:34:35;;;;;;;15.93;7.47;;;;;;;0.42;100.00;96781.59;5036588;28;20301;-73
2021/03/18 03:37:02;;;;;;;18.93;7.27;;;;;;;0.43;100.00;96780.63;5036636;28;20212;-73
2021/03/18 03:39:28;;;;;;;20.00;7.63;;;;;;;0.37;100.00;96783.66;5034686;28;20208;-73
2021/03/18 03:41:55;;;;;;;17.93;7.90;;;;;;;0.37;100.00;96786.25;5036540;28;20201;-73
2021/03/18 03:44:21;;;;;;;16.90;7.37;;;;;;;0.47;100.00;96784.72;5036656;28;20620;-73
2021/03/18 03:46:47;;;;;;;18.77;8.00;;;;;;;0.58;100.00;96782.19;5035853;28;20212;-73
2021/03/18 03:49:13;;;;;;;20.87;8.27;;;;;;;0.69;100.00;96779.72;5036896;28;20203;-73
2021/03/18 03:51:50;;;;;;;19.20;6.90;;;;;;;0.57;100.00;96785.72;5036751;28;20201;-73
2021/03/18 03:54:19;;;;;;;18.77;8.00;;;;;;;0.66;100.00;96779.91;5036265;28;20219;-73
2021/03/18 03:56:54;;;;;;;17.83;7.73;;;;;;;0.72;100.00;96787.28;5034529;28;20205;-73
2021/03/18 03:59:24;;;;;;;24.57;8.80;;;;;;;0.63;100.00;96782.72;5037007;28;20201;-73
2021/03/18 04:01:52;;;;;;;19.80;8.17;;;;;;;0.67;100.00;96786.75;5035951;28;20201;-73
2021/03/18 04:04:22;;;;;;;16.80;7.13;;;;;;;0.72;100.00;96795.06;5036359;28;20998;-73
2021/03/18 04:06:52;;;;;;;18.33;7.47;;;;;;;0.46;100.00;96792.56;5035679;28;20203;-73
2021/03/18 04:09:19;;;;;;;16.27;7.23;;;;;;;0.53;100.00;96788.63;5036015;28;20216;-73
2021/03/18 04:11:47;;;;;;;18.43;7.93;;;;;;;0.59;100.00;96789.88;5036246;28;20201;-73
2021/03/18 04:14:15;;;;;;;18.30;7.57;;;;;;;0.70;100.00;96786.53;5036693;28;20278;-73
2021/03/18 04:16:44;;;;;;;18.57;7.40;;;;;;;0.66;100.00;96788.53;5035752;28;20208;-73
2021/03/18 04:19:14;;;;;;;21.07;7.93;;;;;;;0.67;100.00;96786.75;5036060;28;20201;-73
2021/03/18 04:21:42;;;;;;;18.83;8.40;;;;;;;0.74;100.00;96788.84;5036386;28;20438;-73
2021/03/18 04:24:11;;;;;;;18.27;8.13;;;;;;;0.74;100.00;96788.84;5036076;28;20228;-73
2021/03/18 04:26:39;;;;;;;24.57;8.57;;;;;;;0.86;100.00;96793.16;5034780;28;20200;-73
2021/03/18 04:29:07;;;;;;;21.53;8.40;;;;;;;0.86;100.00;96790.56;5036802;28;20586;-73
2021/03/18 04:31:37;;;;;;;22.07;8.43;;;;;;;0.83;100.00;96788.19;5036861;28;20198;-73
2021/03/18 04:34:05;;;;;;;17.47;7.77;;;;;;;0.82;100.00;96789.13;5036149;28;20211;-73
2021/03/18 04:36:32;;;;;;;16.00;7.13;;;;;;;0.81;100.00;96789.25;5035641;28;20614;-73
2021/03/18 04:39:00;;;;;;;20.33;8.13;;;;;;;0.73;100.00;96787.16;5036053;28;20800;-73
2021/03/18 04:41:28;;;;;;;18.10;8.10;;;;;;;0.81;100.00;96784.88;5035840;28;20687;-73
2021/03/18 04:43:55;;;;;;;18.10;8.10;;;;;;;0.80;100.00;96782.38;5036109;28;20265;-73
2021/03/18 04:46:21;;;;;;;19.07;8.17;;;;;;;0.81;100.00;96789.25;5035691;28;20229;-73
2021/03/18 04:48:48;;;;;;;16.73;7.67;;;;;;;0.78;100.00;96786.88;5035798;28;20208;-73
2021/03/18 04:51:15;;;;;;;19.63;8.33;;;;;;;0.77;100.00;96787.78;5036141;28;20209;-73
2021/03/18 04:53:41;;;;;;;22.07;7.73;;;;;;;0.54;100.00;96785.94;5035779;28;20227;-73
2021/03/18 04:56:08;;;;;;;19.30;8.20;;;;;;;0.47;100.00;96787.28;5035012;28;20234;-73
2021/03/18 04:58:35;;;;;;;17.87;7.83;;;;;;;0.42;100.00;96791.94;5035994;28;20223;-73
2021/03/18 05:01:03;;;;;;;16.17;7.30;;;;;;;0.45;100.00;96783.97;5036319;28;20216;-72
2021/03/18 05:03:29;;;;;;;19.23;7.90;;;;;;;0.39;100.00;96786.97;5035947;28;20201;-72
2021/03/18 05:05:57;;;;;;;19.43;7.50;;;;;;;0.33;100.00;96784.78;5034904;28;20221;-72
2021/03/18 05:08:26;;;;;;;21.30;8.53;;;;;;;0.38;100.00;96782.72;5039045;28;20266;-73
2021/03/18 05:10:53;;;;;;;18.77;8.33;;;;;;;0.39;100.00;96781.78;5039907;28;20580;-74
2021/03/18 05:13:19;;;;;;;17.60;7.77;;;;;;;0.35;100.00;96780.31;5039737;28;20870;-72
2021/03/18 05:15:47;;;;;;;18.73;8.27;;;;;;;0.35;100.00;96782.91;5038383;28;20232;-74
2021/03/18 05:18:14;;;;;;;16.93;7.80;;;;;;;0.31;100.00;96786.66;5039319;28;20196;-74
2021/03/18 05:20:42;;;;;;;22.43;8.80;;;;;;;0.30;100.00;96787.56;5039049;28;20584;-73
2021/03/18 05:23:11;;;;;;;19.37;8.67;;;;;;;0.24;100.00;96794.94;5039355;28;20197;-74
2021/03/18 05:25:38;;;;;;;20.90;8.83;;;;;;;0.31;100.00;96783.25;5038102;28;20757;-74
2021/03/18 05:28:05;;;;;;;21.43;8.80;;;;;;;0.32;100.00;96793.50;5038721;28;20205;-73
2021/03/18 05:30:32;;;;;;;18.60;8.67;;;;;;;0.35;100.00;96784.69;5038721;28;20205;-74
2021/03/18 05:32:59;;;;;;;21.57;8.60;;;;;;;0.32;100.00;96790.06;5039216;28;20224;-72
2021/03/18 05:35:25;;;;;;;18.57;8.17;;;;;;;0.26;100.00;96791.31;5038315;28;20221;-73
2021/03/18 05:37:52;;;;;;;22.13;9.00;;;;;;;0.29;100.00;96791.09;5038780;28;20639;-73
2021/03/18 05:40:19;;;;;;;22.40;9.10;;;;;;;0.34;100.00;96786.44;5039166;28;20201;-72
2021/03/18 05:42:47;;;;;;;24.33;8.80;;;;;;;0.34;100.00;96778.66;5038651;28;20213;-73
2021/03/18 05:45:15;;;;;;;19.40;9.17;;;;;;;0.34;100.00;96794.19;5037918;28;20278;-72
2021/03/18 05:47:41;;;;;;;20.07;8.43;;;;;;;0.33;100.00;96787.38;5039245;28;20232;-72
2021/03/18 05:50:10;;;;;;;19.73;9.03;;;;;;;0.34;100.00;96796.78;5038776;28;20208;-72
2021/03/18 05:52:36;;;;;;;21.07;8.90;;;;;;;0.37;100.00;96793.16;5038786;28;20205;-73
2021/03/18 05:55:03;;;;;;;22.73;9.60;;;;;;;0.37;100.00;96804.38;5037792;28;20700;-72
2021/03/18 05:57:30;;;;;;;20.03;8.80;;;;;;;0.32;100.00;96801.28;5038181;28;21049;-73
2021/03/18 05:59:57;;;;;;;21.87;9.03;;;;;;;0.36;100.00;96797.53;5038293;28;20210;-73
2021/03/18 06:02:23;;;;;;;22.70;9.77;;;;;;;0.49;100.00;96793.19;5038842;28;20196;-73
2021/03/18 06:04:50;;;;;;;24.00;9.47;;;;;;;0.58;100.00;96786.56;5038017;28;20217;-73
2021/03/18 06:07:16;;;;;;;20.13;9.50;;;;;;;0.66;100.00;96792.88;5037886;28;20204;-73
2021/03/18 06:09:42;;;;;;;24.30;9.93;;;;;;;0.64;100.00;96792.97;5038251;28;20220;-73
2021/03/18 06:12:09;;;;;;;23.43;9.87;;;;;;;0.64;100.00;96797.34;5038145;28;20198;-73
2021/03/18 06:14:35;;;;;;;23.57;9.07;;;;;;;0.59;100.00;96800.25;5037835;28;20224;-74
2021/03/18 06:17:03;;;;;;;19.13;8.63;;;;;;;0.70;100.00;96802.94;5037823;28;20212;-73
2021/03/18 06:19:29;;;;;;;20.47;8.93;;;;;;;0.68;100.00;96793.59;5036675;28;20670;-73
2021/03/18 06:21:58;;;;;;;22.30;9.40;;;;;;;0.74;100.00;96796.63;5037792;28;20672;-73
2021/03/18 06:24:27;;;;;;;21.53;9.60;;;;;;;0.78;100.00;96807.63;5037414;28;20217;-73
2021/03/18 06:26:54;;;;;;;23.23;10.20;;;;;;;0.88;100.00;96806.03;5036994;28;20233;-73
2021/03/18 06:29:34;;;;;;;26.37;10.30;;;;;;;1.02;100.00;96800.72;5037818;28;21032;-73
2021/03/18 06:32:02;;;;;;;22.80;9.90;;;;;;;1.12;100.00;96799.16;5037881;28;20226;-73
2021/03/18 06:34:39;;;;;;;20.23;9.47;;;;;;;1.23;100.00;96798.31;5037782;28;20294;-73
2021/03/18 06:37:05;;;;;;;24.53;9.83;;;;;;;1.34;100.00;96795.78;5036987;28;20575;-73
2021/03/18 06:39:32;;;;;;;23.30;9.90;;;;;;;1.46;100.00;96802.69;5038311;28;20207;-73
2021/03/18 06:41:59;;;;;;;20.77;9.47;;;;;;;1.50;100.00;96801.56;5037969;28;20196;-73
2021/03/18 06:44:28;;;;;;;23.23;9.43;;;;;;;1.44;100.00;96796.78;5038697;28;20548;-73
2021/03/18 06:46:56;;;;;;;25.00;10.33;;;;;;;1.25;100.00;96804.22;5036397;28;20204;-73
2021/03/18 06:49:24;;;;;;;23.83;9.57;;;;;;;1.21;100.00;96796.78;5036795;28;20224;-73
2021/03/18 06:52:02;;;;;;;26.80;10.80;;;;;;;1.20;100.00;96808.09;5037346;28;20204;-73
2021/03/18 06:54:32;;;;;;;22.57;9.77;;;;;;;1.25;100.00;96809.41;5037374;28;20719;-73
2021/03/18 06:56:59;;;;;;;23.37;10.20;;;;;;;1.34;100.00;96810.53;5036761;28;20200;-73
2021/03/18 06:59:27;;;;;;;24.80;10.63;;;;;;;1.32;100.00;96800.28;5037718;28;20208;-73
2021/03/18 07:02:07;;;;;;;25.90;10.47;;;;;;;1.36;100.00;96809.50;5037281;28;20656;-73
2021/03/18 07:04:35;;;;;;;22.77;10.07;;;;;;;1.52;100.00;96804.88;5036927;28;20239;-73
2021/03/18 07:07:03;;;;;;;20.40;9.67;;;;;;;1.64;100.00;96808.34;5036458;28;20227;-73
2021/03/18 07:09:31;;;;;;;26.03;10.90;;;;;;;1.51;100.00;96802.38;5036856;28;20208;-73
2021/03/18 07:12:02;;;;;;;26.33;11.10;;;;;;;1.64;100.00;96805.75;5036718;28;20215;-73
2021/03/18 07:14:33;;;;;;;26.40;10.57;;;;;;;1.59;100.00;96807.84;5037274;28;20223;-73
2021/03/18 07:16:59;;;;;;;25.10;9.70;;;;;;;1.57;100.00;96804.56;5036303;28;20457;-73
2021/03/18 07:19:28;;;;;;;28.70;10.90;;;;;;;1.43;100.00;96809.91;5036909;28;20220;-73
2021/03/18 07:21:56;;;;;;;25.97;10.87;;;;;;;1.43;100.00;96804.69;5036784;28;20208;-73
2021/03/18 07:24:24;;;;;;;23.97;10.57;;;;;;;1.39;100.00;96811.06;5036964;28;20232;-73
2021/03/18 07:26:52;;;;;;;25.50;11.23;;;;;;;1.44;100.00;96816.72;5036406;28;20752;-73
2021/03/18 07:29:20;;;;;;;27.17;11.17;;;;;;;1.31;100.00;96808.13;5036216;28;20721;-73
2021/03/18 07:31:48;;;;;;;31.90;11.87;;;;;;;1.27;100.00;96810.16;5036969;28;20580;-73
2021/03/18 07:34:14;;;;;;;29.60;11.33;;;;;;;1.34;100.00;96816.56;5036770;28;20231;-73
2021/03/18 07:36:40;;;;;;;26.53;11.80;;;;;;;1.48;100.00;96813.00;5035937;28;20224;-73
2021/03/18 07:39:08;;;;;;;27.53;12.13;;;;;;;1.55;100.00;96815.03;5036798;28;20706;-73
2021/03/18 07:41:36;;;;;;;27.67;11.70;;;;;;;1.40;100.00;96813.53;5036716;28;20690;-73
2021/03/18 07:44:04;;;;;;;26.67;11.03;;;;;;;1.57;100.00;96817.53;5036439;28;21035;-73
2021/03/18 07:46:32;;;;;;;25.67;11.13;;;;;;;1.35;100.00;96815.63;5035980;28;20738;-73
2021/03/18 07:49:02;;;;;;;27.77;12.53;;;;;;;1.37;100.00;96813.72;5036952;28;20201;-73
2021/03/18 07:51:30;;;;;;;23.73;10.67;;;;;;;1.16;100.00;96816.16;5036124;28;20208;-73
2021/03/18 07:53:58;;;;;;;27.97;10.90;;;;;;;1.25;100.00;96812.00;5034172;28;20216;-73
2021/03/18 07:56:25;;;;;;;28.73;11.57;;;;;;;1.29;100.00;96813.44;5034380;28;20231;-73
2021/03/18 07:58:53;;;;;;;29.30;11.43;;;;;;;1.16;100.00;96810.97;5036228;28;20205;-73
2021/03/18 08:01:40;;;;;;;29.20;12.27;;;;;;;1.40;100.00;96804.91;5035800;28;20681;-73
2021/03/18 08:04:08;;;;;;;27.47;11.87;;;;;;;1.59;100.00;96803.50;5035702;28;20206;-73
2021/03/18 08:06:51;;;;;;;28.33;11.73;;;;;;;1.75;100.00;96805.84;5035780;28;20200;-73
2021/03/18 08:09:49;;;;;;;25.13;11.73;;;;;;;1.93;100.00;96805.31;5035303;28;20205;-73
2021/03/18 08:12:15;;;;;;;25.27;10.83;;;;;;;1.94;99.33;96807.00;5035232;28;20204;-73
2021/03/18 08:14:41;;;;;;;27.17;11.87;;;;;;;1.94;99.10;96801.78;5035768;28;20237;-73
2021/03/18 08:17:28;;;;;;;28.73;11.50;;;;;;;1.97;97.20;96806.75;5035009;28;20201;-73
2021/03/18 08:19:55;;;;;;;32.83;11.97;;;;;;;1.94;98.99;96809.59;5035642;28;20656;-73
2021/03/18 08:22:28;;;;;;;32.27;12.33;;;;;;;1.97;100.00;96796.34;5035953;28;20216;-73
2021/03/18 08:25:15;;;;;;;24.63;11.40;;;;;;;2.05;99.81;96799.22;5035352;28;20228;-73
2021/03/18 08:27:41;;;;;;;25.53;11.43;;;;;;;2.22;97.32;96798.84;5035810;28;20213;-73
2021/03/18 08:30:20;;;;;;;27.77;11.67;;;;;;;2.29;96.98;96797.41;5035960;28;20558;-73
2021/03/18 08:32:46;;;;;;;29.30;12.33;;;;;;;2.41;94.96;96798.16;5035515;28;20267;-73
2021/03/18 08:35:25;;;;;;;26.17;11.57;;;;;;;2.39;95.34;96799.22;5034694;28;20601;-73
2021/03/18 08:37:51;;;;;;;24.70;10.83;;;;;;;2.24;95.11;96807.34;5035744;28;20197;-73
2021/03/18 08:40:29;;;;;;;24.53;11.00;;;;;;;2.05;93.68;96794.03;5035696;28;20205;-73
2021/03/18 08:43:02;;;;;;;28.77;12.17;;;;;;;2.18;96.17;96800.81;5037869;28;20205;-73
2021/03/18 08:45:44;;;;;;;25.60;11.63;;;;;;;2.22;97.08;96796.22;5038883;28;20225;-73
2021/03/18 08:48:21;;;;;;;23.83;11.13;;;;;;;2.27;94.36;96800.13;5039241;28;20208;-73
2021/03/18 08:50:57;;;;;;;28.90;11.40;;;;;;;2.29;93.95;96792.22;5039043;28;20572;-73
2021/03/18 08:53:33;;;;;;;26.77;12.10;;;;;;;2.23;95.02;96790.06;5039086;28;20216;-74
2021/03/18 08:56:00;;;;;;;27.20;11.50;;;;;;;2.17;91.93;96798.34;5038326;28;20960;-73
2021/03/18 08:58:26;;;;;;;26.80;11.77;;;;;;;2.53;91.11;96791.22;5039319;28;20205;-71
2021/03/18 09:00:52;;;;;;;28.27;11.47;;;;;;;2.70;90.21;96782.97;5038887;28;20470;-71
2021/03/18 09:03:20;;;;;;;27.90;12.30;;;;;;;2.86;89.47;96778.25;5039250;28;20204;-71
2021/03/18 09:05:50;;;;;;;26.60;12.23;;;;;;;2.84;89.26;96782.75;5038063;28;20872;-74
2021/03/18 09:08:21;;;;;;;23.97;10.97;;;;;;;2.98;87.75;96772.94;5039264;28;20205;-73
2021/03/18 09:10:48;;;;;;;24.07;11.43;;;;;;;3.15;85.92;96772.47;5038804;28;20216;-73
2021/03/18 09:13:16;;;;;;;25.77;11.13;;;;;;;3.26;85.06;96769.81;5038729;28;20653;-73
2021/03/18 09:15:45;;;;;;;25.60;10.53;;;;;;;3.40;85.79;96772.19;5037909;28;20267;-74
2021/03/18 09:18:17;;;;;;;28.87;11.30;;;;;;;3.27;88.15;96769.72;5038822;28;20587;-74
2021/03/18 09:20:45;;;;;;;19.60;10.10;;;;;;;3.51;81.33;96773.00;5038231;28;20213;-73
2021/03/18 09:23:13;;;;;;;23.90;10.43;;;;;;;3.64;81.19;96771.91;5038264;28;20215;-71
2021/03/18 09:25:39;;;;;;;23.43;10.53;;;;;;;3.58;82.65;96760.31;5038324;28;20212;-71
2021/03/18 09:28:06;;;;;;;22.83;10.23;;;;;;;3.44;81.11;96769.22;5038435;28;20201;-71
2021/03/18 09:30:35;;;;;;;21.93;10.67;;;;;;;3.29;82.13;96767.81;5038051;28;20197;-71
2021/03/18 09:33:14;;;;;;;23.67;11.03;;;;;;;3.55;84.75;96763.16;5038024;28;20467;-71
2021/03/18 09:35:40;;;;;;;25.23;10.57;;;;;;;3.72;86.98;96764.28;5037235;28;20383;-71
2021/03/18 09:38:15;;;;;;;23.70;10.10;;;;;;;4.02;82.79;96758.38;5038163;28;20215;-71
2021/03/18 09:40:41;;;;;;;24.83;10.60;;;;;;;4.39;82.02;96752.63;5037858;28;20676;-71
2021/03/18 09:43:08;;;;;;;23.93;10.20;;;;;;;4.56;78.40;96739.03;5038284;28;20204;-71
2021/03/18 09:45:34;;;;;;;19.70;9.70;;;;;;;4.77;78.85;96742.41;5037225;28;20215;-71
2021/03/18 09:48:01;;;;;;;21.40;9.07;;;;;;;4.61;79.13;96739.44;5038569;28;20205;-71
2021/03/18 09:50:30;;;;;;;21.77;9.77;;;;;;;4.66;76.08;96735.50;5038133;28;20233;-71
2021/03/18 09:53:07;;;;;;;19.47;9.63;;;;;;;4.53;76.79;96741.88;5037699;28;20266;-71
2021/03/18 09:55:33;;;;;;;17.13;9.07;;;;;;;4.28;76.74;96740.47;5037407;28;20244;-71
2021/03/18 09:58:07;;;;;;;19.67;8.50;;;;;;;3.95;79.93;96746.81;5038128;28;21089;-71
2021/03/18 10:00:34;;;;;;;18.57;8.57;;;;;;;4.10;78.42;96741.19;5037592;28;20200;-71
2021/03/18 10:03:01;;;;;;;20.47;8.97;;;;;;;4.11;82.46;96737.63;5037891;28;20963;-71
2021/03/18 10:05:27;;;;;;;19.43;9.00;;;;;;;3.97;78.15;96735.31;5036942;28;20214;-73
2021/03/18 10:07:55;;;;;;;17.07;7.37;;;;;;;3.71;78.88;96733.97;5037843;28;20199;-73
2021/03/18 10:10:21;;;;;;;17.07;8.30;;;;;;;4.08;77.91;96726.59;5037798;28;20209;-73
2021/03/18 10:12:48;;;;;;;17.50;8.03;;;;;;;4.10;76.43;96725.53;5037910;28;20205;-73
2021/03/18 10:15:16;;;;;;;19.70;9.10;;;;;;;4.34;78.15;96715.66;5036466;28;20639;-73
2021/03/18 10:17:45;;;;;;;20.97;8.03;;;;;;;4.57;74.50;96710.19;5037363;28;20206;-73
2021/03/18 10:20:16;;;;;;;15.43;8.07;;;;;;;4.65;74.72;96712.97;5037739;28;20296;-73
2021/03/18 10:22:46;;;;;;;15.27;7.90;;;;;;;4.68;74.88;96701.44;5037102;28;20354;-73
2021/03/18 10:25:15;;;;;;;19.57;8.20;;;;;;;4.77;75.53;96705.88;5036347;28;20224;-73
2021/03/18 10:27:43;;;;;;;15.83;7.83;;;;;;;4.68;81.27;96704.84;5037634;28;20210;-73
2021/03/18 10:30:12;;;;;;;14.17;7.80;;;;;;;4.67;78.04;96703.22;5037317;28;20200;-73
2021/03/18 10:32:39;;;;;;;17.63;7.43;;;;;;;4.14;78.23;96706.06;5036961;28;20201;-73
2021/03/18 10:35:08;;;;;;;15.97;7.80;;;;;;;4.27;76.42;96706.69;5036724;28;21119;-73
2021/03/18 10:37:38;;;;;;;15.57;7.20;;;;;;;4.20;78.30;96707.31;5037422;28;20197;-73
2021/03/18 10:40:17;;;;;;;14.23;7.07;;;;;;;4.12;77.13;96702.75;5037090;28;20577;-73
2021/03/18 10:42:48;;;;;;;18.87;8.70;;;;;;;4.74;80.41;96693.09;5036910;28;20212;-73
2021/03/18 10:45:20;;;;;;;16.57;8.20;;;;;;;5.10;76.58;96693.34;5036522;28;20252;-73
2021/03/18 10:47:47;;;;;;;15.40;8.00;;;;;;;5.36;82.05;96689.28;5036917;28;20204;-73
2021/03/18 10:50:16;;;;;;;20.07;7.77;;;;;;;4.97;81.34;96690.97;5036877;28;20584;-73
2021/03/18 10:52:52;;;;;;;14.63;7.23;;;;;;;4.48;80.67;96684.00;5036910;28;20211;-73
2021/03/18 10:55:22;;;;;;;15.43;7.17;;;;;;;4.47;77.12;96688.41;5035892;28;20251;-73
2021/03/18 10:57:54;;;;;;;16.60;7.33;;;;;;;4.63;77.32;96690.56;5037209;28;20246;-73
2021/03/18 11:00:22;;;;;;;14.53;7.00;;;;;;;4.43;74.67;96688.78;5036660;28;20205;-73
2021/03/18 11:02:57;;;;;;;16.50;7.40;;;;;;;4.44;78.41;96687.84;5036366;28;20209;-73
2021/03/18 11:05:29;;;;;;;15.37;6.57;;;;;;;4.61;77.27;96680.25;5035547;28;20230;-74
2021/03/18 11:07:56;;;;;;;7.87;3.67;;;;;;;4.43;69.22;96687.03;5036574;28;20292;-73
2021/03/18 11:10:22;;;;;;;9.50;4.13;;;;;;;4.47;67.72;96682.38;5036508;28;20216;-73
2021/03/18 11:12:58;;;;;;;8.87;5.10;;;;;;;4.76;71.96;96683.34;5036609;28;20598;-73
2021/03/18 11:15:23;;;;;;;13.13;5.40;;;;;;;4.77;70.96;96682.38;5036050;28;20528;-73
2021/03/18 11:18:04;;;;;;;11.50;5.60;;;;;;;4.62;70.35;96683.69;5036702;28;20565;-74
2021/03/18 11:20:35;;;;;;;11.37;6.27;;;;;;;4.60;67.22;96680.38;5036314;28;20209;-73
2021/03/18 11:23:02;;;;;;;10.67;5.40;;;;;;;4.70;68.21;96673.41;5036203;28;20209;-73
2021/03/18 11:25:28;;;;;;;13.27;5.70;;;;;;;4.89;68.36;96669.91;5035540;28;20583;-74
2021/03/18 11:27:54;;;;;;;11.13;5.63;;;;;;;4.98;66.75;96674.34;5036418;28;20201;-73
2021/03/18 11:30:28;;;;;;;10.17;5.17;;;;;;;4.81;69.17;96670.72;5036571;28;20579;-73
2021/03/18 11:33:15;;;;;;;11.93;6.57;;;;;;;4.59;70.19;96660.47;5036155;28;20563;-73
2021/03/18 11:35:43;;;;;;;10.47;5.83;;;;;;;4.74;71.80;96670.41;5034310;28;20302;-73